Time;durP1;ratioP1;P1;durP2;ratioP2;P2;SDS_P1;SDS_P2;PMS_P1;PMS_P2;Temp;Humidity;BMP_temperature;BMP_pressure;BME280_temperature;BME280_humidity;BME280_pressure;Samples;Min_cycle;Max_cycle;Signal;HPM_P1;HPM_P2
2021/06/16 00:01:07;;;;;;;7.40;3.23;;;;;;;;;;5088966;28;20392;-68
2021/06/16 00:03:32;;;;;;;6.83;3.27;;;;;;;;;;5090378;28;20039;-68
2021/06/16 00:05:58;;;;;;;7.43;3.33;;;;;;;;;;5088770;28;20035;-68
2021/06/16 00:08:24;;;;;;;7.17;3.33;;;;;;;;;;5088745;28;20097;-68
2021/06/16 00:10:49;;;;;;;10.63;3.40;;;;;;;;;;5091171;28;20020;-68
2021/06/16 00:13:15;;;;;;;12.50;2.90;;;;;;;;;;5089350;28;20069;-68
2021/06/16 00:15:41;;;;;;;8.43;2.80;;;;;;;;;;5089422;28;20066;-68
2021/06/16 00:18:10;;;;;;;8.70;2.47;;;;;;;;;;5088704;28;20031;-68
2021/06/16 00:20:35;;;;;;;7.70;2.80;;;;;;;;;;5089409;28;20027;-68
2021/06/16 00:23:01;;;;;;;6.67;2.40;;;;;;;;;;5088131;28;20028;-68
2021/06/16 00:25:26;;;;;;;6.70;2.57;;;;;;;;;;5089281;28;20042;-68
2021/06/16 00:27:52;;;;;;;5.07;2.60;;;;;;;;;;5089059;28;20495;-68
2021/06/16 00:30:18;;;;;;;5.23;2.70;;;;;;;;;;5089146;28;20471;-68
2021/06/16 00:32:43;;;;;;;6.53;2.53;;;;;;;;;;5089040;28;20492;-68
2021/06/16 00:35:09;;;;;;;9.90;3.10;;;;;;;;;;5087835;28;20028;-68
2021/06/16 00:37:35;;;;;;;8.73;2.77;;;;;;;;;;5089221;28;20380;-68
2021/06/16 00:40:03;;;;;;;6.83;2.73;;;;;;;;;;5091626;28;20047;-68
2021/06/16 00:42:28;;;;;;;9.70;2.73;;;;;;;;;;5092304;28;20461;-68
2021/06/16 00:44:54;;;;;;;5.00;2.67;;;;;;;;;;5093457;28;20096;-68
2021/06/16 00:47:19;;;;;;;8.00;2.87;;;;;;;;;;5091960;28;20027;-68
2021/06/16 00:49:45;;;;;;;7.73;2.53;;;;;;;;;;5091645;28;20039;-67
2021/06/16 00:52:10;;;;;;;11.30;3.10;;;;;;;;;;5092481;28;20027;-68
2021/06/16 00:54:35;;;;;;;6.50;2.50;;;;;;;;;;5092692;28;20360;-68
2021/06/16 00:57:01;;;;;;;8.60;3.13;;;;;;;;;;5091403;28;20474;-68
2021/06/16 00:59:27;;;;;;;11.17;3.30;;;;;;;;;;5092519;28;20032;-68
2021/06/16 01:01:53;;;;;;;9.63;3.20;;;;;;;;;;5116768;22;20344;-68
2021/06/16 01:04:21;;;;;;;9.73;3.13;;;;;;;;;;5110094;27;20039;-68
2021/06/16 01:06:51;;;;;;;9.53;3.33;;;;;;;;;;5108381;27;20027;-68
2021/06/16 01:09:37;;;;;;;11.70;3.23;;;;;;;;;;5108518;27;20019;-70
2021/06/16 01:12:29;;;;;;;9.43;2.87;;;;;;;;;;5100855;27;20035;-70
2021/06/16 01:14:59;;;;;;;9.93;3.33;;;;;;;;;;5068346;28;20542;-70
2021/06/16 01:17:35;;;;;;;11.47;3.07;;;;;;;;;;5069189;28;20039;-70
2021/06/16 01:20:16;;;;;;;11.07;3.10;;;;;;;;;;5070258;28;20036;-70
2021/06/16 01:22:43;;;;;;;11.40;3.23;;;;;;;;;;5068566;28;20190;-70
2021/06/16 01:25:19;;;;;;;8.80;3.33;;;;;;;;;;5069837;28;20032;-70
2021/06/16 01:27:44;;;;;;;15.13;4.17;;;;;;;;;;5069744;28;20532;-70
2021/06/16 01:30:10;;;;;;;10.70;3.50;;;;;;;;;;5069446;28;20017;-70
2021/06/16 01:32:36;;;;;;;9.03;3.63;;;;;;;;;;5067736;28;20107;-70
2021/06/16 01:35:01;;;;;;;9.97;3.80;;;;;;;;;;5068821;28;20368;-70
2021/06/16 01:37:27;;;;;;;10.47;3.60;;;;;;;;;;5066069;28;20142;-70
2021/06/16 01:39:53;;;;;;;13.13;3.97;;;;;;;;;;5065349;28;20111;-70
2021/06/16 01:42:20;;;;;;;11.93;3.27;;;;;;;;;;5069113;28;20020;-70
2021/06/16 01:44:46;;;;;;;8.87;3.47;;;;;;;;;;5076110;28;20043;-70
2021/06/16 01:47:12;;;;;;;10.83;3.27;;;;;;;;;;5069786;28;20466;-70
2021/06/16 01:49:38;;;;;;;8.90;3.60;;;;;;;;;;5073706;28;20484;-70
2021/06/16 01:52:04;;;;;;;9.67;3.17;;;;;;;;;;5100592;27;20039;-70
2021/06/16 01:54:30;;;;;;;10.30;3.80;;;;;;;;;;5113894;27;20031;-70
2021/06/16 01:56:56;;;;;;;7.33;3.60;;;;;;;;;;5112700;27;20471;-70
2021/06/16 01:59:21;;;;;;;9.53;3.73;;;;;;;;;;5113435;27;20030;-70
2021/06/16 02:01:48;;;;;;;9.43;3.63;;;;;;;;;;5122071;27;20038;-70
2021/06/16 02:04:13;;;;;;;9.73;3.47;;;;;;;;;;5120687;27;20134;-70
2021/06/16 02:06:40;;;;;;;13.83;3.67;;;;;;;;;;5109218;27;20154;-70
2021/06/16 02:09:08;;;;;;;6.50;3.20;;;;;;;;;;5114277;27;20690;-71
2021/06/16 02:11:36;;;;;;;9.03;3.67;;;;;;;;;;5109552;28;20028;-70
2021/06/16 02:14:04;;;;;;;10.40;3.57;;;;;;;;;;5113669;27;20020;-70
2021/06/16 02:16:42;;;;;;;11.07;4.07;;;;;;;;;;5113668;27;20102;-70
2021/06/16 02:19:09;;;;;;;12.97;3.70;;;;;;;;;;5112469;27;20028;-70
2021/06/16 02:21:35;;;;;;;10.63;4.87;;;;;;;;;;5120163;27;20015;-70
2021/06/16 02:24:00;;;;;;;10.17;3.50;;;;;;;;;;5119591;27;20046;-70
2021/06/16 02:26:26;;;;;;;7.93;3.90;;;;;;;;;;5107464;27;20039;-70
2021/06/16 02:28:51;;;;;;;10.43;3.63;;;;;;;;;;5108727;27;20577;-70
2021/06/16 02:31:16;;;;;;;8.53;3.87;;;;;;;;;;5108198;27;20011;-70
2021/06/16 02:33:42;;;;;;;9.20;3.47;;;;;;;;;;5108398;28;20107;-70
2021/06/16 02:36:09;;;;;;;12.83;3.80;;;;;;;;;;5113893;27;20031;-70
2021/06/16 02:38:35;;;;;;;10.93;4.20;;;;;;;;;;5113022;27;20107;-70
2021/06/16 02:41:01;;;;;;;6.83;3.70;;;;;;;;;;5119570;27;20102;-70
2021/06/16 02:43:27;;;;;;;7.47;3.77;;;;;;;;;;5116161;27;20054;-70
2021/06/16 02:45:52;;;;;;;12.37;4.10;;;;;;;;;;5122858;27;20058;-70
2021/06/16 02:48:18;;;;;;;11.97;4.13;;;;;;;;;;5116150;27;20046;-70
2021/06/16 02:50:44;;;;;;;10.40;4.40;;;;;;;;;;5124936;27;20054;-70
2021/06/16 02:53:13;;;;;;;10.93;4.17;;;;;;;;;;5111273;27;20030;-70
2021/06/16 02:55:39;;;;;;;13.80;3.80;;;;;;;;;;5119086;27;20482;-71
2021/06/16 02:58:05;;;;;;;9.23;3.97;;;;;;;;;;5113149;27;20058;-70
2021/06/16 03:00:30;;;;;;;7.57;3.70;;;;;;;;;;5109965;27;20427;-70
2021/06/16 03:02:56;;;;;;;10.63;4.03;;;;;;;;;;5102228;27;20093;-70
2021/06/16 03:05:23;;;;;;;8.77;3.93;;;;;;;;;;5111339;27;20082;-70
2021/06/16 03:07:49;;;;;;;7.77;3.77;;;;;;;;;;5106976;28;20019;-70
2021/06/16 03:10:16;;;;;;;10.80;3.97;;;;;;;;;;5118725;27;20019;-70
2021/06/16 03:12:42;;;;;;;11.33;3.80;;;;;;;;;;5112063;27;20020;-70
2021/06/16 03:15:08;;;;;;;7.30;3.57;;;;;;;;;;5115213;27;20031;-70
2021/06/16 03:17:33;;;;;;;13.40;4.93;;;;;;;;;;5107309;27;20027;-70
2021/06/16 03:20:00;;;;;;;11.80;5.30;;;;;;;;;;5110401;28;20084;-70
2021/06/16 03:22:25;;;;;;;17.47;3.97;;;;;;;;;;5115541;27;20077;-70
2021/06/16 03:24:51;;;;;;;7.57;3.80;;;;;;;;;;5112670;27;20020;-70
2021/06/16 03:27:19;;;;;;;9.07;3.77;;;;;;;;;;5110810;28;20016;-70
2021/06/16 03:29:44;;;;;;;17.87;4.00;;;;;;;;;;5113882;27;20081;-71
2021/06/16 03:32:10;;;;;;;8.70;3.60;;;;;;;;;;5111731;27;20017;-70
2021/06/16 03:34:36;;;;;;;9.67;3.90;;;;;;;;;;5124954;28;20622;-71
2021/06/16 03:37:02;;;;;;;8.10;3.50;;;;;;;;;;5118107;28;20383;-70
2021/06/16 03:39:28;;;;;;;8.47;3.50;;;;;;;;;;5109847;28;20069;-70
2021/06/16 03:41:53;;;;;;;6.93;3.67;;;;;;;;;;5126956;28;20417;-70
2021/06/16 03:44:19;;;;;;;8.37;3.60;;;;;;;;;;5116179;28;20399;-71
2021/06/16 03:46:45;;;;;;;5.80;3.33;;;;;;;;;;5114817;28;20016;-71
2021/06/16 03:49:11;;;;;;;8.43;2.90;;;;;;;;;;5116341;28;20363;-71
2021/06/16 03:51:39;;;;;;;5.03;2.77;;;;;;;;;;5111421;28;20463;-71
2021/06/16 03:54:11;;;;;;;7.17;3.07;;;;;;;;;;5113733;28;20031;-71
2021/06/16 03:56:37;;;;;;;8.30;3.25;;;;;;;;;;5114265;28;20020;-71
2021/06/16 03:59:02;;;;;;;9.30;3.33;;;;;;;;;;5117874;28;20052;-71
2021/06/16 04:01:28;;;;;;;9.70;3.30;;;;;;;;;;5111320;28;20120;-71
2021/06/16 04:03:56;;;;;;;9.23;3.03;;;;;;;;;;5111122;28;20101;-74
2021/06/16 04:06:22;;;;;;;6.43;3.10;;;;;;;;;;5106128;28;20027;-73
2021/06/16 04:08:47;;;;;;;10.33;3.00;;;;;;;;;;5109287;28;20032;-73
2021/06/16 04:11:14;;;;;;;9.13;3.23;;;;;;;;;;5103707;28;20028;-74
2021/06/16 04:13:39;;;;;;;4.73;2.60;;;;;;;;;;5113955;27;20027;-72
2021/06/16 04:16:05;;;;;;;5.97;2.40;;;;;;;;;;5123163;27;20030;-72
2021/06/16 04:18:32;;;;;;;5.17;2.77;;;;;;;;;;5122824;27;20036;-72
2021/06/16 04:20:57;;;;;;;9.33;2.40;;;;;;;;;;5124667;27;20054;-72
2021/06/16 04:23:23;;;;;;;6.03;2.47;;;;;;;;;;5119831;27;20055;-72
2021/06/16 04:25:48;;;;;;;5.63;2.30;;;;;;;;;;5105934;27;20035;-71
2021/06/16 04:28:13;;;;;;;4.43;2.30;;;;;;;;;;5116563;27;20082;-72
2021/06/16 04:30:39;;;;;;;7.13;2.40;;;;;;;;;;5111191;27;20076;-72
2021/06/16 04:33:04;;;;;;;8.20;2.40;;;;;;;;;;5115527;27;20024;-72
2021/06/16 04:35:29;;;;;;;7.70;2.30;;;;;;;;;;5117002;28;20019;-72
2021/06/16 04:37:55;;;;;;;6.80;2.53;;;;;;;;;;5117838;27;20030;-73
2021/06/16 04:40:20;;;;;;;13.10;2.47;;;;;;;;;;5122902;27;20027;-72
2021/06/16 04:42:45;;;;;;;8.93;2.57;;;;;;;;;;5115838;27;20030;-72
2021/06/16 04:45:11;;;;;;;7.67;2.77;;;;;;;;;;5116027;27;20544;-73
2021/06/16 04:47:37;;;;;;;6.83;2.10;;;;;;;;;;5114847;28;20411;-73
2021/06/16 04:50:09;;;;;;;4.73;2.40;;;;;;;;;;5114722;28;20066;-72
2021/06/16 04:52:35;;;;;;;8.37;2.40;;;;;;;;;;5117738;27;20015;-73
2021/06/16 04:55:00;;;;;;;8.70;2.63;;;;;;;;;;5122415;27;20027;-73
2021/06/16 04:57:26;;;;;;;9.93;2.87;;;;;;;;;;5119097;27;20054;-73
2021/06/16 04:59:51;;;;;;;6.67;2.40;;;;;;;;;;5124328;27;20370;-73
2021/06/16 05:02:16;;;;;;;6.17;2.40;;;;;;;;;;5120895;27;20058;-73
2021/06/16 05:04:42;;;;;;;7.20;2.80;;;;;;;;;;5102357;28;20115;-73
2021/06/16 05:07:07;;;;;;;6.57;2.70;;;;;;;;;;5112853;27;20019;-73
2021/06/16 05:09:32;;;;;;;7.10;2.33;;;;;;;;;;5118165;27;20031;-74
2021/06/16 05:11:57;;;;;;;6.17;2.80;;;;;;;;;;5115928;27;20080;-73
2021/06/16 05:14:24;;;;;;;8.43;2.50;;;;;;;;;;5119302;27;20019;-72
2021/06/16 05:16:49;;;;;;;5.40;2.13;;;;;;;;;;5123048;27;20387;-73
2021/06/16 05:19:17;;;;;;;6.33;2.33;;;;;;;;;;5112797;28;20027;-73
2021/06/16 05:21:42;;;;;;;7.20;2.70;;;;;;;;;;5127045;27;20035;-74
2021/06/16 05:24:08;;;;;;;4.60;2.40;;;;;;;;;;5105151;27;20068;-74
2021/06/16 05:26:35;;;;;;;10.50;2.50;;;;;;;;;;5114363;28;20092;-72
2021/06/16 05:29:00;;;;;;;7.10;2.30;;;;;;;;;;5115339;28;20047;-73
2021/06/16 05:31:26;;;;;;;5.70;2.50;;;;;;;;;;5127201;27;20027;-74
2021/06/16 05:33:51;;;;;;;6.70;2.47;;;;;;;;;;5115125;28;20044;-72
2021/06/16 05:36:16;;;;;;;5.80;2.30;;;;;;;;;;5115128;28;20020;-72
2021/06/16 05:38:42;;;;;;;6.47;2.53;;;;;;;;;;5117622;27;20035;-73
2021/06/16 05:41:07;;;;;;;5.03;2.33;;;;;;;;;;5115944;28;20103;-74
2021/06/16 05:43:32;;;;;;;8.10;2.67;;;;;;;;;;5107563;28;20420;-73
2021/06/16 05:45:58;;;;;;;6.43;2.53;;;;;;;;;;5114472;28;20121;-73
2021/06/16 05:48:23;;;;;;;5.47;2.50;;;;;;;;;;5112862;28;20019;-74
2021/06/16 05:50:49;;;;;;;7.35;2.40;;;;;;;;;;5111497;28;20549;-73
2021/06/16 05:53:14;;;;;;;5.97;2.15;;;;;;;;;;5113126;27;20070;-73
2021/06/16 05:55:39;;;;;;;4.90;2.05;;;;;;;;;;5115142;27;20031;-73
2021/06/16 05:58:05;;;;;;;6.32;2.15;;;;;;;;;;5114651;27;20161;-73
2021/06/16 06:00:30;;;;;;;4.60;2.13;;;;;;;;;;5114848;27;20062;-73
2021/06/16 06:02:55;;;;;;;6.93;2.03;;;;;;;;;;5114134;27;20192;-73
2021/06/16 06:05:21;;;;;;;7.13;2.25;;;;;;;;;;5113614;28;20032;-73
2021/06/16 06:07:46;;;;;;;4.13;2.13;;;;;;;;;;5113034;27;20019;-72
2021/06/16 06:10:13;;;;;;;5.50;2.28;;;;;;;;;;5110580;28;20111;-73
2021/06/16 06:12:39;;;;;;;5.80;1.90;;;;;;;;;;5114159;27;20043;-73
2021/06/16 06:15:05;;;;;;;5.35;2.00;;;;;;;;;;5109219;27;20023;-73
2021/06/16 06:17:30;;;;;;;4.70;1.90;;;;;;;;;;5118809;27;20084;-73
2021/06/16 06:19:56;;;;;;;6.15;2.00;;;;;;;;;;5128369;27;20031;-74
2021/06/16 06:22:21;;;;;;;8.73;1.98;;;;;;;;;;5113712;28;20031;-72
2021/06/16 06:24:46;;;;;;;4.60;1.88;;;;;;;;;;5113416;28;20023;-73
2021/06/16 06:27:12;;;;;;;4.00;2.10;;;;;;;;;;5102423;28;20576;-72
2021/06/16 06:29:39;;;;;;;5.50;2.00;;;;;;;;;;5121588;27;20068;-73
2021/06/16 06:32:04;;;;;;;6.28;1.80;;;;;;;;;;5122103;27;20660;-72
2021/06/16 06:34:30;;;;;;;8.02;1.70;;;;;;;;;;5113545;28;20055;-72
2021/06/16 06:36:55;;;;;;;4.93;1.65;;;;;;;;;;5113211;28;20103;-73
2021/06/16 06:39:20;;;;;;;4.60;1.92;;;;;;;;;;5113015;28;20094;-73
2021/06/16 06:41:46;;;;;;;8.95;1.85;;;;;;;;;;5112681;28;20023;-73
2021/06/16 06:44:11;;;;;;;5.63;1.80;;;;;;;;;;5113426;28;20027;-73
2021/06/16 06:46:36;;;;;;;5.50;2.17;;;;;;;;;;5111236;28;20027;-72
2021/06/16 06:49:02;;;;;;;5.90;1.90;;;;;;;;;;5113617;28;20038;-74
2021/06/16 06:51:27;;;;;;;5.07;1.60;;;;;;;;;;5112321;28;20016;-72
2021/06/16 06:53:53;;;;;;;3.63;1.40;;;;;;;;;;5103673;28;20447;-73
2021/06/16 06:56:19;;;;;;;5.32;1.77;;;;;;;;;;5113328;28;20059;-72
2021/06/16 06:58:44;;;;;;;3.85;1.45;;;;;;;;;;5105606;28;20107;-74
2021/06/16 07:01:09;;;;;;;4.80;1.73;;;;;;;;;;5098452;28;20035;-73
2021/06/16 07:03:35;;;;;;;6.13;2.00;;;;;;;;;;5105407;27;20043;-73
2021/06/16 07:06:00;;;;;;;4.15;1.40;;;;;;;;;;5120671;27;20027;-73
2021/06/16 07:08:25;;;;;;;2.45;1.30;;;;;;;;;;5113242;28;20019;-73
2021/06/16 07:10:51;;;;;;;4.22;1.30;;;;;;;;;;5113272;28;20030;-73
2021/06/16 07:13:16;;;;;;;3.47;1.30;;;;;;;;;;5102661;28;20020;-73
2021/06/16 07:15:42;;;;;;;3.00;1.38;;;;;;;;;;5113468;28;20077;-73
2021/06/16 07:18:07;;;;;;;3.40;1.25;;;;;;;;;;5103677;28;20445;-72
2021/06/16 07:20:32;;;;;;;3.97;1.17;;;;;;;;;;5109848;28;20099;-74
2021/06/16 07:22:58;;;;;;;2.75;1.15;;;;;;;;;;5110919;28;20028;-74
2021/06/16 07:25:23;;;;;;;3.30;1.30;;;;;;;;;;5113282;28;20034;-73
2021/06/16 07:27:48;;;;;;;3.40;1.40;;;;;;;;;;5112861;28;20046;-74
2021/06/16 07:30:14;;;;;;;3.42;1.05;;;;;;;;;;5111379;28;20458;-72
2021/06/16 07:32:40;;;;;;;3.97;1.20;;;;;;;;;;5102636;28;20027;-72
2021/06/16 07:35:06;;;;;;;2.78;1.10;;;;;;;;;;5113120;28;20028;-73
2021/06/16 07:37:31;;;;;;;2.53;0.90;;;;;;;;;;5113163;28;20075;-73
2021/06/16 07:39:57;;;;;;;2.45;0.93;;;;;;;;;;5113138;28;20020;-74
2021/06/16 07:42:23;;;;;;;4.82;1.10;;;;;;;;;;5112475;28;20024;-73
2021/06/16 07:44:48;;;;;;;7.10;1.15;;;;;;;;;;5113070;28;20340;-73
2021/06/16 07:47:14;;;;;;;3.78;1.63;;;;;;;;;;5110912;28;20341;-75
2021/06/16 07:49:39;;;;;;;3.47;1.15;;;;;;;;;;5115873;28;20428;-73
2021/06/16 07:52:05;;;;;;;2.13;1.08;;;;;;;;;;5116890;28;20417;-74
2021/06/16 07:54:30;;;;;;;3.42;1.10;;;;;;;;;;5117553;28;20060;-73
2021/06/16 07:56:55;;;;;;;2.40;1.10;;;;;;;;;;5117860;28;20084;-73
2021/06/16 07:59:21;;;;;;;3.50;1.05;;;;;;;;;;5117451;28;20030;-73
2021/06/16 08:01:47;;;;;;;3.10;1.20;;;;;;;;;;5116981;28;20019;-74
2021/06/16 08:04:15;;;;;;;4.18;1.13;;;;;;;;;;5105523;28;20058;-73
2021/06/16 08:06:41;;;;;;;2.63;0.90;;;;;;;;;;5096563;28;20115;-75
2021/06/16 08:09:06;;;;;;;4.68;1.20;;;;;;;;;;5096869;28;20030;-73
2021/06/16 08:11:31;;;;;;;3.85;1.30;;;;;;;;;;5094966;28;20475;-74
2021/06/16 08:13:57;;;;;;;5.13;1.38;;;;;;;;;;5096561;28;20028;-74
2021/06/16 08:16:22;;;;;;;1.80;0.90;;;;;;;;;;5097009;28;20032;-74
2021/06/16 08:18:49;;;;;;;2.35;0.82;;;;;;;;;;5094331;28;20025;-73
2021/06/16 08:21:16;;;;;;;3.08;1.00;;;;;;;;;;5096494;28;20016;-74
2021/06/16 08:23:42;;;;;;;8.48;1.58;;;;;;;;;;5096064;28;20023;-74
2021/06/16 08:26:07;;;;;;;5.03;1.02;;;;;;;;;;5096488;28;20463;-74
2021/06/16 08:28:32;;;;;;;3.53;1.13;;;;;;;;;;5094647;28;20103;-75
2021/06/16 08:30:58;;;;;;;2.47;0.70;;;;;;;;;;5096053;28;20375;-74
2021/06/16 08:33:23;;;;;;;5.28;0.95;;;;;;;;;;5081831;28;20023;-74
2021/06/16 08:35:48;;;;;;;4.13;0.98;;;;;;;;;;5095676;28;20043;-75
2021/06/16 08:38:14;;;;;;;4.68;1.10;;;;;;;;;;5095733;28;20027;-74
2021/06/16 08:40:39;;;;;;;3.15;1.00;;;;;;;;;;5095468;28;20111;-77
2021/06/16 08:43:04;;;;;;;5.57;1.35;;;;;;;;;;5097112;28;20486;-74
2021/06/16 08:45:34;;;;;;;2.22;0.75;;;;;;;;;;5095223;28;20023;-73
2021/06/16 08:47:59;;;;;;;3.05;0.88;;;;;;;;;;5095676;28;20107;-73
2021/06/16 08:50:24;;;;;;;2.75;0.90;;;;;;;;;;5091333;28;20454;-73
2021/06/16 08:52:50;;;;;;;2.65;0.82;;;;;;;;;;5095215;28;20371;-74
2021/06/16 08:55:19;;;;;;;4.97;0.90;;;;;;;;;;5090410;28;20024;-73
2021/06/16 08:57:45;;;;;;;2.38;0.80;;;;;;;;;;5088715;28;20364;-74
2021/06/16 09:00:11;;;;;;;3.30;0.80;;;;;;;;;;5095426;28;20028;-74
2021/06/16 09:02:56;;;;;;;3.33;0.80;;;;;;;;;;5094960;28;20400;-75
2021/06/16 09:05:35;;;;;;;1.52;0.68;;;;;;;;;;5083894;28;20044;-74
2021/06/16 09:08:01;;;;;;;1.67;0.70;;;;;;;;;;5094807;28;20031;-74
2021/06/16 09:10:26;;;;;;;4.90;0.70;;;;;;;;;;5082065;28;20159;-74
2021/06/16 09:12:54;;;;;;;2.38;0.80;;;;;;;;;;5107761;28;20106;-74
2021/06/16 09:15:21;;;;;;;2.75;0.90;;;;;;;;;;5100932;28;20028;-74
2021/06/16 09:18:00;;;;;;;3.25;0.88;;;;;;;;;;5098804;28;20024;-74
2021/06/16 09:20:46;;;;;;;3.85;1.00;;;;;;;;;;5093407;28;20058;-74
2021/06/16 09:23:27;;;;;;;2.85;0.73;;;;;;;;;;5087189;28;20518;-74
2021/06/16 09:25:53;;;;;;;;;;;;;;;;;;5084172;28;20032;-74
2021/06/16 09:28:32;;;;;;;2.67;0.80;;;;;;;;;;5095110;28;19914;-74
2021/06/16 09:30:59;;;;;;;4.28;0.80;;;;;;;;;;5095116;28;20278;-74
2021/06/16 09:33:26;;;;;;;5.13;0.98;;;;;;;;;;5094986;28;20023;-74
2021/06/16 09:35:52;;;;;;;3.03;0.95;;;;;;;;;;5096944;28;20021;-74
2021/06/16 09:38:30;;;;;;;2.97;0.80;;;;;;;;;;5090508;28;20024;-74
2021/06/16 09:40:57;;;;;;;2.38;0.80;;;;;;;;;;5082582;28;20100;-74
2021/06/16 09:43:23;;;;;;;2.63;0.85;;;;;;;;;;5096996;28;20093;-74
2021/06/16 09:45:53;;;;;;;5.13;1.02;;;;;;;;;;5096347;28;20024;-74
2021/06/16 09:48:29;;;;;;;3.08;0.93;;;;;;;;;;5083166;28;20020;-74
2021/06/16 09:51:13;;;;;;;3.25;0.95;;;;;;;;;;5090285;28;20388;-74
2021/06/16 09:54:11;;;;;;;3.28;0.95;;;;;;;;;;5094721;28;20313;-74
2021/06/16 09:56:37;;;;;;;3.88;0.90;;;;;;;;;;5011082;28;20041;-75
2021/06/16 09:59:02;;;;;;;2.35;0.80;;;;;;;;;;5035132;28;20032;-75
2021/06/16 10:01:42;;;;;;;3.17;0.80;;;;;;;;;;5033911;28;20642;-74
2021/06/16 10:04:07;;;;;;;4.50;1.00;;;;;;;;;;5050678;28;20455;-75
2021/06/16 10:06:33;;;;;;;2.13;0.73;;;;;;;;;;5051105;28;20055;-74
2021/06/16 10:09:05;;;;;;;1.98;0.90;;;;;;;;;;5038295;28;20485;-75
2021/06/16 10:11:31;;;;;;;1.50;0.60;;;;;;;;;;5046267;28;20374;-74
2021/06/16 10:13:57;;;;;;;1.95;0.75;;;;;;;;;;5051772;28;20021;-75
2021/06/16 10:16:22;;;;;;;3.75;0.80;;;;;;;;;;5051404;28;20833;-74
2021/06/16 10:18:49;;;;;;;4.10;1.00;;;;;;;;;;5040631;28;20048;-74
2021/06/16 10:21:16;;;;;;;1.88;0.75;;;;;;;;;;5051494;28;20024;-73
2021/06/16 10:23:42;;;;;;;3.53;1.00;;;;;;;;;;5051132;28;20542;-74
2021/06/16 10:26:12;;;;;;;2.80;0.80;;;;;;;;;;5051488;28;20118;-74
2021/06/16 10:28:39;;;;;;;2.03;0.77;;;;;;;;;;5049722;28;20512;-73
2021/06/16 10:31:05;;;;;;;6.47;0.90;;;;;;;;;;5051311;28;20021;-74
2021/06/16 10:33:38;;;;;;;2.30;0.80;;;;;;;;;;5096226;28;20040;-73
2021/06/16 10:36:22;;;;;;;4.18;0.93;;;;;;;;;;5114260;28;20482;-73
2021/06/16 10:39:16;;;;;;;3.10;0.90;;;;;;;;;;5102508;28;20105;-73
2021/06/16 10:41:53;;;;;;;5.57;1.00;;;;;;;;;;5095545;28;20581;-74
2021/06/16 10:44:23;;;;;;;6.00;1.00;;;;;;;;;;5114472;28;20020;-73
2021/06/16 10:46:53;;;;;;;2.70;0.90;;;;;;;;;;5112921;28;20045;-73
2021/06/16 10:49:56;;;;;;;2.22;1.00;;;;;;;;;;5113726;28;20375;-72
2021/06/16 10:52:24;;;;;;;1.80;0.80;;;;;;;;;;5013422;28;20028;-72
2021/06/16 10:54:53;;;;;;;5.70;0.90;;;;;;;;;;5010959;28;20018;-72
2021/06/16 10:57:18;;;;;;;1.42;0.80;;;;;;;;;;5014367;28;20034;-73
2021/06/16 11:00:04;;;;;;;2.30;0.73;;;;;;;;;;5016182;28;20028;-72
2021/06/16 11:02:49;;;;;;;3.72;1.13;;;;;;;;;;5004597;28;20138;-73
2021/06/16 11:05:22;;;;;;;3.13;0.70;;;;;;;;;;4983931;28;20970;-74
2021/06/16 11:07:48;;;;;;;2.60;0.88;;;;;;;;;;4982988;28;20070;-72
2021/06/16 11:10:13;;;;;;;1.80;0.75;;;;;;;;;;4987592;28;20753;-73
2021/06/16 11:12:43;;;;;;;3.38;1.05;;;;;;;;;;4987969;28;20022;-72
2021/06/16 11:15:09;;;;;;;4.57;1.00;;;;;;;;;;4990548;28;20018;-74
2021/06/16 11:17:39;;;;;;;3.47;0.90;;;;;;;;;;4987111;28;20039;-73
2021/06/16 11:20:05;;;;;;;5.85;0.90;;;;;;;;;;4987027;28;20026;-73
2021/06/16 11:22:32;;;;;;;4.55;1.23;;;;;;;;;;5015328;28;20040;-72
2021/06/16 11:25:21;;;;;;;3.22;1.00;;;;;;;;;;5091844;28;20031;-73
2021/06/16 11:28:19;;;;;;;2.65;0.88;;;;;;;;;;5083101;28;20046;-73
2021/06/16 11:31:13;;;;;;;4.18;1.02;;;;;;;;;;5048234;28;20031;-72
2021/06/16 11:33:46;;;;;;;2.00;0.90;;;;;;;;;;5071002;28;20028;-72
2021/06/16 11:36:17;;;;;;;2.88;0.90;;;;;;;;;;5093041;28;20039;-73
2021/06/16 11:38:53;;;;;;;2.67;0.80;;;;;;;;;;5083735;28;20462;-72
2021/06/16 11:41:20;;;;;;;3.47;1.10;;;;;;;;;;5092129;28;20050;-71
2021/06/16 11:44:12;;;;;;;4.15;1.30;;;;;;;;;;5092051;28;20496;-71
2021/06/16 11:46:41;;;;;;;3.42;1.10;;;;;;;;;;5088789;28;20094;-71
2021/06/16 11:49:15;;;;;;;2.13;1.00;;;;;;;;;;5095589;28;20435;-72
2021/06/16 11:51:46;;;;;;;2.88;1.00;;;;;;;;;;5091470;28;20373;-71
2021/06/16 11:54:30;;;;;;;2.47;1.13;;;;;;;;;;5078093;28;20027;-71
2021/06/16 11:56:59;;;;;;;2.88;1.10;;;;;;;;;;5097568;28;20055;-71
2021/06/16 11:59:41;;;;;;;3.55;1.00;;;;;;;;;;5086543;28;20047;-72
2021/06/16 12:02:19;;;;;;;4.18;1.33;;;;;;;;;;5095742;28;20020;-71
2021/06/16 12:05:13;;;;;;;3.15;1.10;;;;;;;;;;5115838;28;20027;-71
2021/06/16 12:07:52;;;;;;;2.67;1.17;;;;;;;;;;5107496;28;20031;-70
2021/06/16 12:10:22;;;;;;;5.90;1.27;;;;;;;;;;5112590;28;20027;-70
2021/06/16 12:12:57;;;;;;;5.13;1.30;;;;;;;;;;5111563;28;20020;-70
2021/06/16 12:15:23;;;;;;;3.83;1.20;;;;;;;;;;5109550;28;20020;-71
2021/06/16 12:17:53;;;;;;;7.07;1.65;;;;;;;;;;5116641;28;20070;-71
2021/06/16 12:20:18;;;;;;;5.03;1.40;;;;;;;;;;5111275;28;20080;-71
2021/06/16 12:22:44;;;;;;;4.38;1.20;;;;;;;;;;5114816;28;20019;-70
2021/06/16 12:25:09;;;;;;;3.88;1.30;;;;;;;;;;5113315;28;20028;-70
2021/06/16 12:27:34;;;;;;;2.78;1.25;;;;;;;;;;5110169;28;20016;-70
2021/06/16 12:30:01;;;;;;;2.30;1.15;;;;;;;;;;5111353;28;20034;-71
2021/06/16 12:32:36;;;;;;;4.32;1.02;;;;;;;;;;5107552;28;20099;-71
2021/06/16 12:35:38;;;;;;;5.72;1.40;;;;;;;;;;5113513;28;20024;-70
2021/06/16 12:38:04;;;;;;;3.90;1.70;;;;;;;;;;5115937;28;20028;-71
2021/06/16 12:40:33;;;;;;;2.42;1.40;;;;;;;;;;5113145;28;20510;-70
2021/06/16 12:42:59;;;;;;;2.75;1.30;;;;;;;;;;5113202;28;20064;-70
2021/06/16 12:45:48;;;;;;;3.42;1.40;;;;;;;;;;5108680;28;20102;-70
2021/06/16 12:48:23;;;;;;;2.92;1.50;;;;;;;;;;5103505;28;20352;-70
2021/06/16 12:51:06;;;;;;;6.65;1.65;;;;;;;;;;5109749;28;20095;-70
2021/06/16 12:53:39;;;;;;;4.43;1.48;;;;;;;;;;5106499;28;20017;-70
2021/06/16 12:56:05;;;;;;;3.33;1.40;;;;;;;;;;5115023;28;20107;-70
2021/06/16 12:58:31;;;;;;;3.30;1.55;;;;;;;;;;5113840;28;20046;-70
2021/06/16 13:00:58;;;;;;;3.22;1.50;;;;;;;;;;5115967;28;20028;-70
2021/06/16 13:03:25;;;;;;;2.72;1.30;;;;;;;;;;5112101;28;20055;-71
2021/06/16 13:05:54;;;;;;;5.13;1.40;;;;;;;;;;5115158;28;20110;-71
2021/06/16 13:08:39;;;;;;;2.97;1.20;;;;;;;;;;5111380;28;20028;-70
2021/06/16 13:11:21;;;;;;;4.32;1.50;;;;;;;;;;5104502;28;20015;-70
2021/06/16 13:13:47;;;;;;;3.65;1.50;;;;;;;;;;5112311;28;20027;-69
2021/06/16 13:16:23;;;;;;;3.55;1.83;;;;;;;;;;5115715;28;20376;-70
2021/06/16 13:18:48;;;;;;;3.13;1.35;;;;;;;;;;5115086;28;20394;-70
2021/06/16 13:21:14;;;;;;;3.35;1.60;;;;;;;;;;5115238;28;20019;-69
2021/06/16 13:23:48;;;;;;;3.15;1.67;;;;;;;;;;5113205;28;20038;-70
2021/06/16 13:26:13;;;;;;;4.97;1.80;;;;;;;;;;5115386;28;20499;-69
2021/06/16 13:28:40;;;;;;;8.10;1.90;;;;;;;;;;5114274;28;20030;-69
2021/06/16 13:31:15;;;;;;;4.13;1.80;;;;;;;;;;5115117;28;20071;-69
2021/06/16 13:33:40;;;;;;;7.20;1.92;;;;;;;;;;5103557;28;20037;-70
2021/06/16 13:36:06;;;;;;;4.20;1.98;;;;;;;;;;5114501;28;20024;-70
2021/06/16 13:38:32;;;;;;;3.40;1.88;;;;;;;;;;5114529;28;20024;-70
2021/06/16 13:40:58;;;;;;;4.57;2.03;;;;;;;;;;5114866;28;20493;-70
2021/06/16 13:43:23;;;;;;;5.28;1.88;;;;;;;;;;5112245;28;20371;-70
2021/06/16 13:45:48;;;;;;;3.67;1.63;;;;;;;;;;5112824;28;20020;-69
2021/06/16 13:48:14;;;;;;;3.90;1.90;;;;;;;;;;5113147;28;20039;-70
2021/06/16 13:50:39;;;;;;;5.28;2.00;;;;;;;;;;5113083;28;20070;-69
2021/06/16 13:53:05;;;;;;;5.97;1.98;;;;;;;;;;5113863;28;20027;-70
2021/06/16 13:55:30;;;;;;;4.63;1.83;;;;;;;;;;5113897;28;20475;-70
2021/06/16 13:57:55;;;;;;;4.25;1.80;;;;;;;;;;5105889;28;20084;-69
2021/06/16 14:00:21;;;;;;;4.70;1.88;;;;;;;;;;5105580;28;20452;-69
2021/06/16 14:02:46;;;;;;;3.63;1.77;;;;;;;;;;5109492;28;20051;-69
2021/06/16 14:05:12;;;;;;;4.50;1.80;;;;;;;;;;5113188;28;20031;-69
2021/06/16 14:07:37;;;;;;;3.88;2.05;;;;;;;;;;5108331;28;20023;-69
2021/06/16 14:10:03;;;;;;;5.40;1.95;;;;;;;;;;5111152;28;20047;-69
2021/06/16 14:12:29;;;;;;;3.85;2.00;;;;;;;;;;5113430;28;20019;-69
2021/06/16 14:14:54;;;;;;;4.63;2.03;;;;;;;;;;5113998;28;20020;-69
2021/06/16 14:17:19;;;;;;;5.35;1.85;;;;;;;;;;5111113;28;20022;-69
2021/06/16 14:19:45;;;;;;;6.72;2.05;;;;;;;;;;5096642;28;20027;-69
2021/06/16 14:22:11;;;;;;;6.70;2.08;;;;;;;;;;5106687;27;20465;-70
2021/06/16 14:24:37;;;;;;;4.65;1.80;;;;;;;;;;5113728;27;20052;-69
2021/06/16 14:27:02;;;;;;;4.10;2.00;;;;;;;;;;5113313;28;20043;-70
2021/06/16 14:29:28;;;;;;;4.85;2.00;;;;;;;;;;5112060;28;20019;-69
2021/06/16 14:31:53;;;;;;;4.55;2.20;;;;;;;;;;5112970;28;20041;-69
2021/06/16 14:34:19;;;;;;;4.20;1.77;;;;;;;;;;5112990;28;20046;-69
2021/06/16 14:36:44;;;;;;;4.07;1.90;;;;;;;;;;5112023;28;20103;-70
2021/06/16 14:39:09;;;;;;;5.03;2.45;;;;;;;;;;5103471;28;20032;-69
2021/06/16 14:41:35;;;;;;;6.25;2.22;;;;;;;;;;5112138;28;20039;-70
2021/06/16 14:44:00;;;;;;;5.22;2.30;;;;;;;;;;5113906;28;20024;-69
2021/06/16 14:46:25;;;;;;;4.03;2.00;;;;;;;;;;5105117;28;20027;-69